createdAt,value
2022-10-22T00:01:15.561Z,15.50
2022-10-22T00:03:43.239Z,13.48
2022-10-22T00:06:11.029Z,17.65
2022-10-22T00:08:38.910Z,14.23
2022-10-22T00:11:15.176Z,14.52
2022-10-22T00:13:43.161Z,15.48
2022-10-22T00:16:11.425Z,14.85
2022-10-22T00:18:40.433Z,14.77
2022-10-22T00:21:08.648Z,15.75
2022-10-22T00:23:36.407Z,14.70
2022-10-22T00:26:04.266Z,17.20
2022-10-22T00:28:31.857Z,14.60
2022-10-22T00:31:01.473Z,16.63
2022-10-22T00:33:30.872Z,18.33
2022-10-22T00:35:58.779Z,18.52
2022-10-22T00:38:26.807Z,16.23
2022-10-22T00:40:55.401Z,18.20
2022-10-22T00:43:24.565Z,15.05
2022-10-22T00:45:52.477Z,14.15
2022-10-22T00:48:28.617Z,15.25
2022-10-22T00:51:06.336Z,16.00
2022-10-22T00:53:38.483Z,16.13
2022-10-22T00:56:07.064Z,15.68
2022-10-22T00:58:39.989Z,16.60
2022-10-22T01:01:13.912Z,13.18
2022-10-22T01:03:41.950Z,17.42
2022-10-22T01:06:13.421Z,16.63
2022-10-22T01:09:09.470Z,18.25
2022-10-22T01:12:14.243Z,16.17
2022-10-22T01:15:04.709Z,15.98
2022-10-22T01:20:38.798Z,14.45
2022-10-22T01:23:28.053Z,16.73
2022-10-22T01:26:04.020Z,17.60
2022-10-22T01:28:42.043Z,15.05
2022-10-22T01:31:12.896Z,15.23
2022-10-22T01:33:41.381Z,14.93
2022-10-22T01:36:10.724Z,13.50
2022-10-22T01:38:40.518Z,14.38
2022-10-22T01:41:11.488Z,18.23
2022-10-22T01:43:39.602Z,23.02
2022-10-22T01:46:08.169Z,22.58
2022-10-22T01:48:44.985Z,18.90
2022-10-22T01:51:22.195Z,17.70
2022-10-22T01:54:12.126Z,17.73
2022-10-22T01:56:46.404Z,21.42
2022-10-22T01:59:51.824Z,21.00
2022-10-22T02:02:44.857Z,15.77
2022-10-22T02:05:22.537Z,15.95
2022-10-22T02:07:59.750Z,15.77
2022-10-22T02:10:29.705Z,15.30
2022-10-22T02:13:00.305Z,17.52
2022-10-22T02:18:00.423Z,14.38
2022-10-22T02:20:31.642Z,15.00
2022-10-22T02:23:03.713Z,15.90
2022-10-22T02:25:35.925Z,15.85
2022-10-22T02:28:27.778Z,14.80
2022-10-22T02:31:13.796Z,16.38
2022-10-22T02:33:51.077Z,14.05
2022-10-22T02:36:19.624Z,16.20
2022-10-22T02:38:49.031Z,14.15
2022-10-22T02:41:18.838Z,14.90
2022-10-22T02:43:53.558Z,15.23
2022-10-22T02:46:26.167Z,14.82
2022-10-22T02:48:53.758Z,17.88
2022-10-22T02:51:21.439Z,16.92
2022-10-22T02:53:49.074Z,17.00
2022-10-22T02:56:16.713Z,22.08
2022-10-22T02:58:44.232Z,19.65
2022-10-22T03:01:15.283Z,16.35
2022-10-22T03:03:44.194Z,17.27
2022-10-22T03:06:12.065Z,17.15
2022-10-22T03:08:40.038Z,17.25
2022-10-22T03:11:07.748Z,18.10
2022-10-22T03:13:36.391Z,18.45
2022-10-22T03:16:04.256Z,17.55
2022-10-22T03:18:31.963Z,20.00
2022-10-22T03:21:11.095Z,16.50
2022-10-22T03:23:41.196Z,18.75
2022-10-22T03:26:10.588Z,17.83
2022-10-22T03:28:39.357Z,16.27
2022-10-22T03:31:07.165Z,17.83
2022-10-22T03:33:35.112Z,16.02
2022-10-22T03:36:02.921Z,16.77
2022-10-22T03:38:32.152Z,16.60
2022-10-22T03:40:59.910Z,16.95
2022-10-22T03:43:28.105Z,19.20
2022-10-22T03:45:55.648Z,20.88
2022-10-22T03:48:23.447Z,18.20
2022-10-22T03:50:51.346Z,19.58
2022-10-22T03:53:19.212Z,17.88
2022-10-22T03:55:47.424Z,18.63
2022-10-22T03:58:15.282Z,19.33
2022-10-22T04:00:43.867Z,18.08
2022-10-22T04:03:11.549Z,16.95
2022-10-22T04:05:39.157Z,19.95
2022-10-22T04:08:07.037Z,18.50
2022-10-22T04:10:34.655Z,18.95
2022-10-22T04:13:02.522Z,19.77
2022-10-22T04:15:31.008Z,15.63
2022-10-22T04:17:58.836Z,18.52
2022-10-22T04:20:27.465Z,17.10
2022-10-22T04:22:55.741Z,18.83
2022-10-22T04:25:23.395Z,18.02
2022-10-22T04:27:51.777Z,18.58
2022-10-22T04:30:19.663Z,17.63
2022-10-22T04:32:47.333Z,15.63
2022-10-22T04:35:15.083Z,17.15
2022-10-22T04:37:43.351Z,17.08
2022-10-22T04:40:12.006Z,19.92
2022-10-22T04:42:39.753Z,19.98
2022-10-22T04:45:08.230Z,17.15
2022-10-22T04:47:35.957Z,18.58
2022-10-22T04:50:04.322Z,19.67
2022-10-22T04:52:32.056Z,18.73
2022-10-22T04:55:00.081Z,18.40
2022-10-22T04:57:31.382Z,17.85
2022-10-22T04:59:59.629Z,18.02
2022-10-22T05:02:27.324Z,18.27
2022-10-22T05:04:54.976Z,18.92
2022-10-22T05:07:23.986Z,17.30
2022-10-22T05:09:52.043Z,15.73
2022-10-22T05:12:19.882Z,16.40
2022-10-22T05:14:47.852Z,20.33
2022-10-22T05:17:15.380Z,19.90
2022-10-22T05:19:43.333Z,20.30
2022-10-22T05:22:11.086Z,19.52
2022-10-22T05:24:38.860Z,18.63
2022-10-22T05:27:06.953Z,18.42
2022-10-22T05:29:34.990Z,17.98
2022-10-22T05:32:02.847Z,19.75
2022-10-22T05:34:30.929Z,16.98
2022-10-22T05:36:59.013Z,17.45
2022-10-22T05:39:27.153Z,17.52
2022-10-22T05:41:55.253Z,17.38
2022-10-22T05:44:23.197Z,16.88
2022-10-22T05:46:50.920Z,18.92
2022-10-22T05:49:19.021Z,19.05
2022-10-22T05:51:47.296Z,18.95
2022-10-22T05:54:21.368Z,21.45
2022-10-22T05:56:50.001Z,22.23
2022-10-22T05:59:18.128Z,20.63
2022-10-22T06:01:46.060Z,19.38
2022-10-22T06:04:16.792Z,17.17
2022-10-22T06:06:50.188Z,19.35
2022-10-22T06:09:20.404Z,19.38
2022-10-22T06:11:49.320Z,20.33
2022-10-22T06:14:18.535Z,19.80
2022-10-22T06:16:47.066Z,20.15
2022-10-22T06:19:17.531Z,19.35
2022-10-22T06:24:14.425Z,20.85
2022-10-22T06:26:43.135Z,22.27
2022-10-22T06:29:11.307Z,25.25
2022-10-22T06:31:39.060Z,21.33
2022-10-22T06:34:12.296Z,23.52
2022-10-22T06:36:43.710Z,21.63
2022-10-22T06:39:17.071Z,21.55
2022-10-22T06:41:45.598Z,20.70
2022-10-22T06:44:18.404Z,21.13
2022-10-22T06:46:46.405Z,17.83
2022-10-22T06:49:15.867Z,17.92
2022-10-22T06:51:45.374Z,18.17
2022-10-22T06:54:13.382Z,19.13
2022-10-22T06:56:41.868Z,18.20
2022-10-22T06:59:11.011Z,17.55
2022-10-22T07:01:39.253Z,17.10
2022-10-22T07:04:09.448Z,18.55
2022-10-22T07:06:37.872Z,19.63
2022-10-22T07:09:06.029Z,18.13
2022-10-22T07:11:45.838Z,19.90
2022-10-22T07:14:15.367Z,20.00
2022-10-22T07:16:43.492Z,19.48
2022-10-22T07:19:11.866Z,18.77
2022-10-22T07:21:39.794Z,18.50
2022-10-22T07:24:07.781Z,18.70
2022-10-22T07:26:35.876Z,17.38
2022-10-22T07:29:04.801Z,18.67
2022-10-22T07:31:32.604Z,21.13
2022-10-22T07:34:00.341Z,21.20
2022-10-22T07:36:28.501Z,20.92
2022-10-22T07:38:59.307Z,20.63
2022-10-22T07:41:28.932Z,18.98
2022-10-22T07:43:58.189Z,20.00
2022-10-22T07:46:27.116Z,17.25
2022-10-22T07:48:55.215Z,19.92
2022-10-22T07:51:23.910Z,19.30
2022-10-22T07:53:51.759Z,20.58
2022-10-22T07:56:19.850Z,19.30
2022-10-22T07:58:47.935Z,21.48
2022-10-22T08:01:15.851Z,23.30
2022-10-22T08:03:44.390Z,18.17
2022-10-22T08:06:16.384Z,22.20
2022-10-22T08:08:45.990Z,24.20
2022-10-22T08:11:14.023Z,17.73
2022-10-22T08:13:45.367Z,17.10
2022-10-22T08:16:14.571Z,19.65
2022-10-22T08:18:42.668Z,20.40
2022-10-22T08:21:14.004Z,21.88
2022-10-22T08:23:41.689Z,20.65
2022-10-22T08:26:10.367Z,19.95
2022-10-22T08:28:38.521Z,19.83
2022-10-22T08:31:09.695Z,19.77
2022-10-22T08:33:39.198Z,17.40
2022-10-22T08:36:07.512Z,20.93
2022-10-22T08:38:35.850Z,21.15
2022-10-22T08:41:15.964Z,22.13
2022-10-22T08:43:55.711Z,22.75
2022-10-22T08:46:58.934Z,20.40
2022-10-22T08:49:39.839Z,21.55
2022-10-22T08:52:19.140Z,29.80
2022-10-22T08:54:56.326Z,27.75
2022-10-22T08:58:01.682Z,26.50
2022-10-22T09:00:49.722Z,21.25
2022-10-22T09:03:45.723Z,33.10
2022-10-22T09:06:19.432Z,27.65
2022-10-22T09:08:48.282Z,26.38
2022-10-22T09:11:38.912Z,26.92
2022-10-22T09:14:09.396Z,34.30
2022-10-22T09:17:03.107Z,28.75
2022-10-22T09:19:46.695Z,22.20
2022-10-22T09:22:39.118Z,18.50
2022-10-22T09:25:26.732Z,16.92
2022-10-22T09:27:58.799Z,24.75
2022-10-22T09:30:33.968Z,17.45
2022-10-22T09:33:07.726Z,17.90
2022-10-22T09:35:45.218Z,16.52
2022-10-22T09:38:15.955Z,18.08
2022-10-22T09:40:53.271Z,17.58
2022-10-22T09:43:21.416Z,18.08
2022-10-22T09:45:56.768Z,17.52
2022-10-22T09:48:35.122Z,17.50
2022-10-22T09:51:06.065Z,17.35
2022-10-22T09:53:42.065Z,19.38
2022-10-22T09:56:37.043Z,20.95
2022-10-22T09:59:05.062Z,24.63
2022-10-22T10:01:36.002Z,23.08
2022-10-22T10:04:10.112Z,22.02
2022-10-22T10:06:40.689Z,18.88
2022-10-22T10:09:26.258Z,17.05
2022-10-22T10:12:13.244Z,18.38
2022-10-22T10:14:54.536Z,17.13
2022-10-22T10:18:03.156Z,18.92
2022-10-22T10:20:49.387Z,18.63
2022-10-22T10:23:39.241Z,19.25
2022-10-22T10:26:10.245Z,20.02
2022-10-22T10:28:44.178Z,17.27
2022-10-22T10:31:29.817Z,17.98
2022-10-22T10:34:24.743Z,19.15
2022-10-22T10:36:57.776Z,45.55
2022-10-22T10:39:38.684Z,18.70
2022-10-22T10:42:44.455Z,20.02
2022-10-22T10:45:41.708Z,19.42
2022-10-22T10:48:31.807Z,17.85
2022-10-22T10:51:17.737Z,18.05
2022-10-22T10:53:54.926Z,20.38
2022-10-22T10:56:47.726Z,20.40
2022-10-22T10:59:23.999Z,18.10
2022-10-22T11:02:10.073Z,18.00
2022-10-22T11:05:00.025Z,18.65
2022-10-22T11:07:39.539Z,17.55
2022-10-22T11:10:18.099Z,16.58
2022-10-22T11:12:51.697Z,15.90
2022-10-22T11:15:28.430Z,17.13
2022-10-22T11:18:07.989Z,14.75
2022-10-22T11:21:10.518Z,14.67
2022-10-22T11:23:50.433Z,16.15
2022-10-22T11:26:36.488Z,16.95
2022-10-22T11:29:07.149Z,16.42
2022-10-22T11:31:35.045Z,14.98
2022-10-22T11:34:32.630Z,16.05
2022-10-22T11:37:04.566Z,16.63
2022-10-22T11:39:43.574Z,16.60
2022-10-22T11:42:19.035Z,14.93
2022-10-22T11:45:06.795Z,14.85
2022-10-22T11:47:52.568Z,16.63
2022-10-22T11:50:25.355Z,15.68
2022-10-22T11:53:17.366Z,14.52
2022-10-22T11:55:55.637Z,15.23
2022-10-22T11:58:45.016Z,18.63
2022-10-22T12:01:14.283Z,16.48
2022-10-22T12:03:45.132Z,15.05
2022-10-22T12:06:21.462Z,16.05
2022-10-22T12:08:49.567Z,18.23
2022-10-22T12:11:26.018Z,14.35
2022-10-22T12:14:15.484Z,15.85
2022-10-22T12:17:04.713Z,16.40
2022-10-22T12:19:40.130Z,14.80
2022-10-22T12:22:34.506Z,14.38
2022-10-22T12:25:08.023Z,15.20
2022-10-22T12:27:39.963Z,17.25
2022-10-22T12:30:18.348Z,18.60
2022-10-22T12:32:46.618Z,17.52
2022-10-22T12:35:20.673Z,17.88
2022-10-22T12:37:54.612Z,17.35
2022-10-22T12:40:25.636Z,16.52
2022-10-22T12:42:57.055Z,22.05
2022-10-22T12:45:31.697Z,18.00
2022-10-22T12:48:06.491Z,19.45
2022-10-22T12:50:40.042Z,16.75
2022-10-22T12:53:14.572Z,19.70
2022-10-22T12:55:43.473Z,18.65
2022-10-22T12:58:20.800Z,18.77
2022-10-22T13:00:49.573Z,17.58
2022-10-22T13:03:42.990Z,19.55
2022-10-22T13:06:30.471Z,20.23
2022-10-22T13:09:13.604Z,20.95
2022-10-22T13:11:50.390Z,20.05
2022-10-22T13:14:33.679Z,22.40
2022-10-22T13:17:24.180Z,23.38
2022-10-22T13:22:34.020Z,23.83
2022-10-22T13:25:15.219Z,33.33
2022-10-22T13:27:48.925Z,45.05
2022-10-22T13:30:22.558Z,45.55
2022-10-22T13:32:57.496Z,36.45
2022-10-22T13:35:28.442Z,29.35
2022-10-22T13:37:56.315Z,28.17
2022-10-22T13:40:24.131Z,36.40
2022-10-22T13:42:52.372Z,32.20
2022-10-22T13:45:20.500Z,29.00
2022-10-22T13:47:53.089Z,33.80
2022-10-22T13:50:22.348Z,32.05
2022-10-22T13:52:54.068Z,29.20
2022-10-22T13:55:27.959Z,33.28
2022-10-22T13:58:13.888Z,36.95
2022-10-22T14:00:44.169Z,41.88
2022-10-22T14:03:15.653Z,43.70
2022-10-22T14:05:45.855Z,44.13
2022-10-22T14:08:16.178Z,51.90
2022-10-22T14:13:13.601Z,61.85
2022-10-22T14:15:42.213Z,60.83
2022-10-22T14:18:16.062Z,58.95
2022-10-22T14:20:44.941Z,62.20
2022-10-22T14:25:47.045Z,37.40
2022-10-22T14:28:14.933Z,35.42
2022-10-22T14:30:43.439Z,32.88
2022-10-22T14:33:15.902Z,33.97
2022-10-22T14:35:43.733Z,37.78
2022-10-22T14:38:11.727Z,43.58
2022-10-22T14:40:40.381Z,36.47
2022-10-22T14:43:10.935Z,34.72
2022-10-22T14:45:39.008Z,32.55
2022-10-22T14:48:07.083Z,31.48
2022-10-22T14:50:34.935Z,26.23
2022-10-22T14:53:02.950Z,33.25
2022-10-22T14:55:31.284Z,34.47
2022-10-22T14:57:59.230Z,35.55
2022-10-22T15:00:26.989Z,27.67
2022-10-22T15:02:57.048Z,29.20
2022-10-22T15:05:26.803Z,51.00
2022-10-22T15:07:55.032Z,30.17
2022-10-22T15:10:22.813Z,26.65
2022-10-22T15:12:50.634Z,26.70
2022-10-22T15:15:21.915Z,24.65
2022-10-22T15:17:51.031Z,26.10
2022-10-22T15:20:19.050Z,25.38
2022-10-22T15:22:46.820Z,53.20
2022-10-22T15:25:15.379Z,24.63
2022-10-22T15:27:47.669Z,24.95
2022-10-22T15:30:18.093Z,30.55
2022-10-22T15:32:46.223Z,24.25
2022-10-22T15:35:14.160Z,24.20
2022-10-22T15:37:41.903Z,23.20
2022-10-22T15:40:09.990Z,26.45
2022-10-22T15:42:38.364Z,25.17
2022-10-22T15:45:07.243Z,27.65
2022-10-22T15:47:35.208Z,39.80
2022-10-22T15:50:03.256Z,61.05
2022-10-22T15:52:32.957Z,69.65
2022-10-22T15:55:05.352Z,56.23
2022-10-22T15:57:33.633Z,87.35
2022-10-22T16:00:01.457Z,67.47
2022-10-22T16:02:30.953Z,58.15
2022-10-22T16:04:59.339Z,60.47
2022-10-22T16:07:28.133Z,57.83
2022-10-22T16:10:00.751Z,62.47
2022-10-22T16:12:29.261Z,57.58
2022-10-22T16:14:57.397Z,58.67
2022-10-22T16:17:25.250Z,59.35
2022-10-22T16:19:53.078Z,58.08
2022-10-22T16:22:21.106Z,52.85
2022-10-22T16:24:49.020Z,57.78
2022-10-22T16:27:16.937Z,62.67
2022-10-22T16:29:44.908Z,51.58
2022-10-22T16:32:13.598Z,55.65
2022-10-22T16:34:42.251Z,64.25
2022-10-22T16:37:12.460Z,73.03
2022-10-22T16:39:40.260Z,55.83
2022-10-22T16:42:08.311Z,60.00
2022-10-22T16:44:36.022Z,32.35
2022-10-22T16:47:03.791Z,33.45
2022-10-22T16:49:31.859Z,28.85
2022-10-22T16:52:00.749Z,28.48
2022-10-22T16:54:28.611Z,25.50
2022-10-22T16:56:57.227Z,33.83
2022-10-22T16:59:25.575Z,24.42
2022-10-22T17:01:55.120Z,28.02
2022-10-22T17:04:23.825Z,27.37
2022-10-22T17:06:52.044Z,32.45
2022-10-22T17:09:20.244Z,30.05
2022-10-22T17:11:48.090Z,36.30
2022-10-22T17:14:16.216Z,36.92
2022-10-22T17:16:45.269Z,25.98
2022-10-22T17:19:16.444Z,30.38
2022-10-22T17:21:44.308Z,30.52
2022-10-22T17:24:12.543Z,30.90
2022-10-22T17:26:41.291Z,24.95
2022-10-22T17:29:09.842Z,33.13
2022-10-22T17:31:39.305Z,41.10
2022-10-22T17:34:11.005Z,35.63
2022-10-22T17:36:39.244Z,26.20
2022-10-22T17:39:11.655Z,26.58
2022-10-22T17:41:40.115Z,26.55
2022-10-22T17:44:12.510Z,30.48
2022-10-22T17:46:40.602Z,32.92
2022-10-22T17:49:21.084Z,40.60
2022-10-22T17:54:17.064Z,23.50
2022-10-22T17:56:45.036Z,31.75
2022-10-22T17:59:16.272Z,27.27
2022-10-22T18:01:46.042Z,31.65
2022-10-22T18:04:17.270Z,31.77
2022-10-22T18:06:47.357Z,30.98
2022-10-22T18:09:18.727Z,38.05
2022-10-22T18:11:51.186Z,38.78
2022-10-22T18:14:21.377Z,39.63
2022-10-22T18:16:49.720Z,61.30
2022-10-22T18:19:20.610Z,64.05
2022-10-22T18:21:49.148Z,51.55
2022-10-22T18:24:17.903Z,55.25
2022-10-22T18:26:46.118Z,53.22
2022-10-22T18:29:19.148Z,43.10
2022-10-22T18:31:48.423Z,44.10
2022-10-22T18:34:18.949Z,42.95
2022-10-22T18:36:50.121Z,32.88
2022-10-22T18:39:18.699Z,31.88
2022-10-22T18:41:46.857Z,33.95
2022-10-22T18:44:15.754Z,32.25
2022-10-22T18:46:43.609Z,38.72
2022-10-22T18:49:18.549Z,34.33
2022-10-22T18:51:49.307Z,27.55
2022-10-22T18:54:23.133Z,27.75
2022-10-22T18:56:53.090Z,27.33
2022-10-22T18:59:23.072Z,26.48
2022-10-22T19:01:55.657Z,25.60
2022-10-22T19:04:23.589Z,23.83
2022-10-22T19:06:51.767Z,28.80
2022-10-22T19:09:20.083Z,24.10
2022-10-22T19:11:50.333Z,27.20
2022-10-22T19:14:22.764Z,25.63
2022-10-22T19:16:58.842Z,24.13
2022-10-22T19:19:34.779Z,25.23
2022-10-22T19:26:31.476Z,26.60
2022-10-22T19:29:05.077Z,28.60
2022-10-22T19:31:33.806Z,25.95
2022-10-22T19:34:02.488Z,24.95
2022-10-22T19:36:32.078Z,21.42
2022-10-22T19:39:01.132Z,17.02
2022-10-22T19:41:30.963Z,19.57
2022-10-22T19:44:03.381Z,22.90
2022-10-22T19:46:33.387Z,21.80
2022-10-22T19:49:03.515Z,20.08
2022-10-22T19:51:33.961Z,22.13
2022-10-22T19:54:08.229Z,20.10
2022-10-22T19:56:39.901Z,20.83
2022-10-22T19:59:09.044Z,21.08
2022-10-22T20:01:37.518Z,19.92
2022-10-22T20:04:05.892Z,21.48
2022-10-22T20:06:34.253Z,21.83
2022-10-22T20:09:02.675Z,21.13
2022-10-22T20:11:30.862Z,20.77
2022-10-22T20:14:01.961Z,20.55
2022-10-22T20:16:30.446Z,21.55
2022-10-22T20:19:05.264Z,19.02
2022-10-22T20:21:36.892Z,19.10
2022-10-22T20:24:04.917Z,19.45
2022-10-22T20:26:34.291Z,17.25
2022-10-22T20:29:02.309Z,19.75
2022-10-22T20:31:31.386Z,20.67
2022-10-22T20:34:01.591Z,19.67
2022-10-22T20:36:31.742Z,18.07
2022-10-22T20:39:04.087Z,18.85
2022-10-22T20:41:34.555Z,18.17
2022-10-22T20:46:34.426Z,17.63
2022-10-22T20:49:08.674Z,22.50
2022-10-22T20:51:37.658Z,27.92
2022-10-22T20:54:08.085Z,17.50
2022-10-22T20:59:06.220Z,17.70
2022-10-22T21:01:38.721Z,17.25
2022-10-22T21:04:07.560Z,20.77
2022-10-22T21:06:38.780Z,18.63
2022-10-22T21:09:08.566Z,19.50
2022-10-22T21:11:38.027Z,18.83
2022-10-22T21:14:07.739Z,20.08
2022-10-22T21:16:37.371Z,18.73
2022-10-22T21:19:05.517Z,18.52
2022-10-22T21:21:33.274Z,17.85
2022-10-22T21:24:01.122Z,18.15
2022-10-22T21:26:29.289Z,22.38
2022-10-22T21:28:57.429Z,22.13
2022-10-22T21:31:26.656Z,23.95
2022-10-22T21:33:55.095Z,23.15
2022-10-22T21:36:23.789Z,25.45
2022-10-22T21:38:52.815Z,27.85
2022-10-22T21:41:22.916Z,26.27
2022-10-22T21:43:51.122Z,25.30
2022-10-22T21:46:29.289Z,27.20
2022-10-22T21:49:01.568Z,27.52
2022-10-22T21:51:32.165Z,25.35
2022-10-22T21:54:00.545Z,27.15
2022-10-22T21:56:34.840Z,23.52
2022-10-22T21:59:05.689Z,22.92
2022-10-22T22:01:33.844Z,26.38
2022-10-22T22:04:02.558Z,22.95
2022-10-22T22:06:33.645Z,24.35
2022-10-22T22:09:02.608Z,24.70
2022-10-22T22:11:30.862Z,21.77
2022-10-22T22:13:58.938Z,26.35
2022-10-22T22:16:30.793Z,27.17
2022-10-22T22:19:01.178Z,28.02
2022-10-22T22:21:30.050Z,27.15
2022-10-22T22:23:58.403Z,28.63
2022-10-22T22:26:30.107Z,29.45
2022-10-22T22:28:59.054Z,20.73
2022-10-22T22:31:29.636Z,22.95
2022-10-22T22:34:05.838Z,22.15
2022-10-22T22:36:36.299Z,23.40
2022-10-22T22:41:32.609Z,22.73
2022-10-22T22:44:00.587Z,20.08
2022-10-22T22:46:28.481Z,25.45
2022-10-22T22:48:56.408Z,24.40
2022-10-22T22:51:24.062Z,21.63
2022-10-22T22:53:52.338Z,21.92
2022-10-22T22:56:23.014Z,22.75
2022-10-22T22:58:50.827Z,23.58
2022-10-22T23:01:30.138Z,23.33
2022-10-22T23:04:01.110Z,24.80
2022-10-22T23:06:31.718Z,23.05
2022-10-22T23:08:59.624Z,22.55
2022-10-22T23:11:28.798Z,26.05
2022-10-22T23:13:59.879Z,23.63
2022-10-22T23:16:31.233Z,27.42
2022-10-22T23:19:00.178Z,30.45
2022-10-22T23:21:39.534Z,24.73
2022-10-22T23:24:09.650Z,28.23
2022-10-22T23:26:41.116Z,27.90
2022-10-22T23:29:17.447Z,26.15
2022-10-22T23:31:45.999Z,28.83
2022-10-22T23:34:17.338Z,27.90
2022-10-22T23:36:45.660Z,26.83
2022-10-22T23:39:16.580Z,28.75
2022-10-22T23:41:44.475Z,31.15
2022-10-22T23:44:13.386Z,29.40
2022-10-22T23:46:43.139Z,26.17
2022-10-22T23:49:11.200Z,22.27
2022-10-22T23:51:40.129Z,27.42
2022-10-22T23:54:11.566Z,26.10
2022-10-22T23:56:39.373Z,28.80
2022-10-22T23:59:08.699Z,31.95
